createdAt,value
2022-10-16T00:00:54.159Z,13.41
2022-10-16T00:03:20.615Z,13.53
2022-10-16T00:05:47.069Z,13.28
2022-10-16T00:08:14.201Z,13.39
2022-10-16T00:10:41.472Z,13.50
2022-10-16T00:13:09.061Z,13.41
2022-10-16T00:15:37.874Z,13.46
2022-10-16T00:18:05.673Z,13.63
2022-10-16T00:20:35.387Z,13.57
2022-10-16T00:23:01.850Z,13.64
2022-10-16T00:25:28.370Z,13.61
2022-10-16T00:27:54.859Z,13.47
2022-10-16T00:30:21.721Z,13.50
2022-10-16T00:32:48.191Z,13.49
2022-10-16T00:35:14.665Z,13.41
2022-10-16T00:37:41.320Z,13.21
2022-10-16T00:40:08.160Z,13.45
2022-10-16T00:42:34.659Z,13.54
2022-10-16T00:45:01.405Z,13.33
2022-10-16T00:47:32.073Z,13.34
2022-10-16T00:50:19.712Z,13.44
2022-10-16T00:52:49.766Z,13.42
2022-10-16T00:55:17.147Z,13.41
2022-10-16T00:57:44.978Z,13.49
2022-10-16T01:00:14.327Z,13.33
2022-10-16T01:02:40.810Z,13.57
2022-10-16T01:05:07.561Z,13.44
2022-10-16T01:07:52.124Z,13.28
2022-10-16T01:10:18.539Z,13.27
2022-10-16T01:12:57.479Z,13.40
2022-10-16T01:15:30.009Z,13.40
2022-10-16T01:18:12.237Z,13.44
2022-10-16T01:21:06.671Z,13.47
2022-10-16T01:23:51.452Z,13.56
2022-10-16T01:26:36.222Z,13.39
2022-10-16T01:29:10.782Z,13.58
2022-10-16T01:31:41.942Z,13.66
2022-10-16T01:34:17.980Z,13.45
2022-10-16T01:37:03.827Z,13.34
2022-10-16T01:39:33.432Z,13.61
2022-10-16T01:42:12.213Z,13.51
2022-10-16T01:44:40.512Z,13.34
2022-10-16T01:47:10.528Z,13.37
2022-10-16T01:49:39.709Z,13.35
2022-10-16T01:52:12.273Z,13.48
2022-10-16T01:54:42.977Z,13.61
2022-10-16T01:57:11.139Z,13.53
2022-10-16T01:59:45.390Z,13.37
2022-10-16T02:02:14.290Z,13.34
2022-10-16T02:04:46.086Z,13.46
2022-10-16T02:07:13.284Z,13.43
2022-10-16T02:09:40.376Z,13.43
2022-10-16T02:12:16.199Z,13.37
2022-10-16T02:14:42.952Z,13.40
2022-10-16T02:17:15.489Z,13.42
2022-10-16T02:19:42.656Z,13.54
2022-10-16T02:22:16.014Z,13.36
2022-10-16T02:25:21.529Z,13.61
2022-10-16T02:27:54.727Z,13.49
2022-10-16T02:30:35.514Z,13.57
2022-10-16T02:33:05.774Z,13.61
2022-10-16T02:35:33.154Z,13.58
2022-10-16T02:38:00.360Z,13.76
2022-10-16T02:40:27.917Z,13.72
2022-10-16T02:42:55.894Z,13.68
2022-10-16T02:45:23.489Z,13.48
2022-10-16T02:47:50.361Z,13.41
2022-10-16T02:50:17.484Z,13.52
2022-10-16T02:52:44.168Z,13.48
2022-10-16T02:55:10.669Z,13.37
2022-10-16T02:57:38.081Z,13.48
2022-10-16T03:00:06.140Z,13.22
2022-10-16T03:02:32.673Z,13.28
2022-10-16T03:04:59.171Z,13.34
2022-10-16T03:07:25.787Z,13.27
2022-10-16T03:09:52.452Z,13.29
2022-10-16T03:12:18.912Z,13.38
2022-10-16T03:14:45.437Z,13.53
2022-10-16T03:17:12.049Z,13.47
2022-10-16T03:19:38.496Z,13.48
2022-10-16T03:22:05.289Z,13.44
2022-10-16T03:24:31.814Z,13.42
2022-10-16T03:26:58.432Z,13.38
2022-10-16T03:29:26.651Z,13.60
2022-10-16T03:31:53.126Z,13.48
2022-10-16T03:34:19.601Z,13.50
2022-10-16T03:36:46.039Z,13.64
2022-10-16T03:39:12.527Z,13.46
2022-10-16T03:41:39.007Z,13.57
2022-10-16T03:44:05.529Z,13.45
2022-10-16T03:46:32.165Z,13.63
2022-10-16T03:48:58.708Z,13.58
2022-10-16T03:51:25.156Z,13.56
2022-10-16T03:53:51.637Z,13.57
2022-10-16T03:56:18.229Z,13.57
2022-10-16T03:58:44.671Z,13.74
2022-10-16T04:01:11.180Z,13.55
2022-10-16T04:03:37.747Z,13.44
2022-10-16T04:06:04.220Z,13.58
2022-10-16T04:08:30.756Z,13.48
2022-10-16T04:10:57.226Z,13.46
2022-10-16T04:13:23.702Z,13.46
2022-10-16T04:15:50.268Z,13.34
2022-10-16T04:18:16.722Z,13.45
2022-10-16T04:20:43.156Z,13.58
2022-10-16T04:23:09.675Z,13.46
2022-10-16T04:25:36.128Z,13.43
2022-10-16T04:28:02.776Z,13.59
2022-10-16T04:30:29.365Z,13.46
2022-10-16T04:32:55.874Z,13.48
2022-10-16T04:35:23.386Z,13.62
2022-10-16T04:37:49.933Z,13.56
2022-10-16T04:40:16.409Z,13.45
2022-10-16T04:42:42.963Z,13.43
2022-10-16T04:45:12.116Z,13.26
2022-10-16T04:47:41.521Z,13.31
2022-10-16T04:50:08.621Z,13.21
2022-10-16T04:55:07.176Z,13.20
2022-10-16T04:57:34.330Z,13.11
2022-10-16T05:00:00.861Z,13.02
2022-10-16T05:02:27.391Z,13.05
2022-10-16T05:04:53.924Z,13.19
2022-10-16T05:07:20.348Z,13.12
2022-10-16T05:09:46.810Z,13.20
2022-10-16T05:12:13.321Z,13.22
2022-10-16T05:14:39.915Z,13.32
2022-10-16T05:17:06.379Z,13.27
2022-10-16T05:19:32.860Z,13.50
2022-10-16T05:22:00.005Z,13.45
2022-10-16T05:24:26.618Z,13.27
2022-10-16T05:26:53.456Z,13.21
2022-10-16T05:29:20.012Z,13.12
2022-10-16T05:31:46.721Z,13.40
2022-10-16T05:34:13.490Z,13.22
2022-10-16T05:36:40.029Z,13.42
2022-10-16T05:39:06.501Z,13.29
2022-10-16T05:41:33.004Z,13.36
2022-10-16T05:43:59.472Z,13.27
2022-10-16T05:46:25.946Z,13.53
2022-10-16T05:48:54.177Z,13.33
2022-10-16T05:51:20.684Z,13.56
2022-10-16T05:53:47.189Z,13.59
2022-10-16T05:56:13.829Z,13.47
2022-10-16T05:58:45.432Z,13.33
2022-10-16T06:01:17.901Z,13.27
2022-10-16T06:03:44.999Z,13.28
2022-10-16T06:06:16.021Z,13.49
2022-10-16T06:08:44.413Z,13.50
2022-10-16T06:11:13.719Z,13.35
2022-10-16T06:13:42.663Z,13.27
2022-10-16T06:16:11.390Z,13.34
2022-10-16T06:18:37.915Z,13.31
2022-10-16T06:21:10.300Z,13.20
2022-10-16T06:23:36.827Z,13.29
2022-10-16T06:26:14.486Z,13.37
2022-10-16T06:28:41.641Z,13.24
2022-10-16T06:31:09.877Z,13.37
2022-10-16T06:33:37.401Z,13.35
2022-10-16T06:36:04.954Z,13.35
2022-10-16T06:38:32.087Z,13.44
2022-10-16T06:40:59.108Z,13.48
2022-10-16T06:43:26.364Z,13.42
2022-10-16T06:45:57.322Z,13.56
2022-10-16T06:48:24.361Z,13.48
2022-10-16T06:53:39.832Z,13.49
2022-10-16T06:56:20.250Z,13.45
2022-10-16T06:58:47.335Z,13.50
2022-10-16T07:01:15.047Z,13.79
2022-10-16T07:03:43.249Z,13.95
2022-10-16T07:06:11.553Z,13.81
2022-10-16T07:08:40.289Z,13.68
2022-10-16T07:11:12.387Z,13.91
2022-10-16T07:13:41.287Z,13.93
2022-10-16T07:16:19.274Z,13.99
2022-10-16T07:18:47.022Z,13.92
2022-10-16T07:21:18.977Z,13.94
2022-10-16T07:23:45.769Z,13.69
2022-10-16T07:26:12.636Z,13.76
2022-10-16T07:28:40.816Z,13.73
2022-10-16T07:31:11.770Z,13.97
2022-10-16T07:33:39.535Z,13.82
2022-10-16T07:36:06.913Z,13.83
2022-10-16T07:38:33.372Z,13.75
2022-10-16T07:41:05.652Z,13.64
2022-10-16T07:43:32.624Z,13.82
2022-10-16T07:46:01.326Z,13.73
2022-10-16T07:48:32.492Z,13.71
2022-10-16T07:51:00.447Z,13.59
2022-10-16T07:53:27.725Z,13.89
2022-10-16T07:55:59.844Z,14.04
2022-10-16T07:58:27.153Z,13.87
2022-10-16T08:00:53.670Z,13.74
2022-10-16T08:03:20.184Z,13.77
2022-10-16T08:05:46.670Z,13.78
2022-10-16T08:08:17.545Z,13.83
2022-10-16T08:10:44.585Z,13.75
2022-10-16T08:13:11.349Z,13.85
2022-10-16T08:15:37.823Z,13.91
2022-10-16T08:18:05.857Z,14.21
2022-10-16T08:20:34.192Z,14.15
2022-10-16T08:23:01.787Z,14.20
2022-10-16T08:25:29.178Z,14.17
2022-10-16T08:27:55.644Z,14.31
2022-10-16T08:30:24.192Z,14.51
2022-10-16T08:32:51.023Z,14.58
2022-10-16T08:35:17.504Z,14.66
2022-10-16T08:37:44.468Z,14.69
2022-10-16T08:43:29.101Z,14.98
2022-10-16T08:46:32.544Z,15.06
2022-10-16T08:49:01.241Z,15.00
2022-10-16T08:51:31.850Z,15.16
2022-10-16T08:54:02.190Z,15.40
2022-10-16T08:56:29.211Z,15.74
2022-10-16T08:59:01.398Z,15.88
2022-10-16T09:01:42.777Z,15.85
2022-10-16T09:04:38.699Z,16.15
2022-10-16T09:07:20.396Z,16.07
2022-10-16T09:10:05.100Z,16.45
2022-10-16T09:12:46.443Z,16.62
2022-10-16T09:15:33.066Z,17.27
2022-10-16T09:17:59.488Z,17.63
2022-10-16T09:20:46.557Z,17.62
2022-10-16T09:23:31.665Z,17.62
2022-10-16T09:25:59.533Z,17.65
2022-10-16T09:28:26.293Z,17.98
2022-10-16T09:30:53.141Z,17.80
2022-10-16T09:33:27.070Z,17.81
2022-10-16T09:35:56.854Z,17.80
2022-10-16T09:38:42.913Z,17.73
2022-10-16T09:41:15.313Z,17.67
2022-10-16T09:43:49.281Z,17.80
2022-10-16T09:46:28.688Z,17.78
2022-10-16T09:48:58.373Z,17.65
2022-10-16T09:51:30.463Z,17.45
2022-10-16T09:53:59.896Z,17.38
2022-10-16T09:56:29.341Z,17.24
2022-10-16T09:58:58.999Z,17.14
2022-10-16T10:01:31.831Z,17.08
2022-10-16T10:04:03.681Z,17.04
2022-10-16T10:06:46.381Z,17.06
2022-10-16T10:09:38.615Z,17.15
2022-10-16T10:12:07.184Z,17.29
2022-10-16T10:14:41.000Z,18.03
2022-10-16T10:17:07.397Z,17.74
2022-10-16T10:19:53.717Z,17.91
2022-10-16T10:22:27.852Z,17.75
2022-10-16T10:25:09.884Z,17.73
2022-10-16T10:27:42.405Z,17.93
2022-10-16T10:30:19.099Z,17.83
2022-10-16T10:33:19.839Z,17.86
2022-10-16T10:35:54.541Z,17.75
2022-10-16T10:38:35.707Z,17.73
2022-10-16T10:41:14.089Z,17.44
2022-10-16T10:44:19.455Z,17.26
2022-10-16T10:46:52.506Z,17.19
2022-10-16T10:49:28.477Z,17.24
2022-10-16T10:52:01.209Z,17.11
2022-10-16T10:54:45.169Z,17.09
2022-10-16T10:57:23.824Z,16.99
2022-10-16T11:00:10.375Z,16.95
2022-10-16T11:02:41.019Z,17.07
2022-10-16T11:05:33.868Z,17.27
2022-10-16T11:08:11.877Z,17.63
2022-10-16T11:10:48.561Z,17.88
2022-10-16T11:13:22.890Z,18.12
2022-10-16T11:15:54.036Z,18.09
2022-10-16T11:19:03.646Z,18.01
2022-10-16T11:21:34.953Z,17.97
2022-10-16T11:24:12.426Z,18.22
2022-10-16T11:26:44.730Z,18.73
2022-10-16T11:29:26.138Z,18.61
2022-10-16T11:32:05.808Z,18.65
2022-10-16T11:34:58.279Z,18.80
2022-10-16T11:37:32.132Z,19.20
2022-10-16T11:40:11.028Z,19.75
2022-10-16T11:42:52.969Z,20.31
2022-10-16T11:45:37.312Z,20.01
2022-10-16T11:48:16.043Z,21.08
2022-10-16T11:50:57.141Z,20.86
2022-10-16T11:53:45.705Z,20.20
2022-10-16T11:56:18.459Z,20.24
2022-10-16T11:58:58.328Z,20.19
2022-10-16T12:01:43.709Z,19.83
2022-10-16T12:04:46.346Z,19.58
2022-10-16T12:07:22.760Z,19.46
2022-10-16T12:09:49.242Z,19.71
2022-10-16T12:12:31.475Z,20.82
2022-10-16T12:15:19.646Z,21.47
2022-10-16T12:17:49.001Z,21.98
2022-10-16T12:20:18.259Z,22.13
2022-10-16T12:22:56.685Z,21.38
2022-10-16T12:25:31.097Z,20.42
2022-10-16T12:28:18.483Z,19.96
2022-10-16T12:30:55.543Z,19.66
2022-10-16T12:33:29.553Z,19.59
2022-10-16T12:35:58.948Z,19.05
2022-10-16T12:38:37.811Z,19.04
2022-10-16T12:41:09.221Z,19.09
2022-10-16T12:43:40.051Z,19.20
2022-10-16T12:46:29.691Z,19.13
2022-10-16T12:49:14.175Z,18.84
2022-10-16T12:51:42.795Z,18.77
2022-10-16T12:54:26.047Z,18.64
2022-10-16T12:57:07.705Z,18.67
2022-10-16T12:59:53.915Z,18.66
2022-10-16T13:02:29.586Z,18.62
2022-10-16T13:05:09.751Z,18.75
2022-10-16T13:07:51.465Z,18.58
2022-10-16T13:10:32.993Z,18.73
2022-10-16T13:13:23.975Z,18.90
2022-10-16T13:16:09.947Z,18.82
2022-10-16T13:19:03.535Z,18.94
2022-10-16T13:22:06.181Z,19.01
2022-10-16T13:24:49.680Z,19.06
2022-10-16T13:27:37.532Z,19.10
2022-10-16T13:30:12.253Z,19.03
2022-10-16T13:32:40.104Z,19.08
2022-10-16T13:35:30.414Z,18.91
2022-10-16T13:38:07.276Z,18.89
2022-10-16T13:40:35.713Z,18.80
2022-10-16T13:43:02.944Z,18.56
2022-10-16T13:45:29.460Z,18.54
2022-10-16T13:48:03.744Z,18.55
2022-10-16T13:50:30.268Z,18.76
2022-10-16T13:53:07.373Z,18.62
2022-10-16T13:55:34.326Z,18.55
2022-10-16T13:58:14.602Z,18.51
2022-10-16T14:00:53.905Z,18.46
2022-10-16T14:03:20.875Z,18.63
2022-10-16T14:05:56.809Z,18.76
2022-10-16T14:08:25.732Z,18.76
2022-10-16T14:10:55.163Z,18.89
2022-10-16T14:13:30.569Z,18.90
2022-10-16T14:15:59.575Z,18.75
2022-10-16T14:18:33.327Z,18.88
2022-10-16T14:21:15.768Z,18.87
2022-10-16T14:23:42.916Z,19.10
2022-10-16T14:26:09.310Z,18.99
2022-10-16T14:28:37.603Z,18.80
2022-10-16T14:31:18.545Z,18.96
2022-10-16T14:33:45.034Z,18.95
2022-10-16T14:36:14.350Z,18.89
2022-10-16T14:38:43.737Z,18.93
2022-10-16T14:41:10.748Z,19.00
2022-10-16T14:43:41.833Z,18.89
2022-10-16T14:46:17.673Z,18.86
2022-10-16T14:48:47.102Z,18.84
2022-10-16T14:51:18.746Z,18.74
2022-10-16T14:53:45.742Z,18.70
2022-10-16T14:56:21.300Z,18.59
2022-10-16T14:58:48.445Z,18.69
2022-10-16T15:01:14.999Z,18.66
2022-10-16T15:03:41.627Z,18.43
2022-10-16T15:06:12.930Z,18.28
2022-10-16T15:08:40.284Z,18.41
2022-10-16T15:11:13.461Z,18.19
2022-10-16T15:13:40.147Z,18.15
2022-10-16T15:16:11.889Z,18.18
2022-10-16T15:18:38.439Z,18.05
2022-10-16T15:21:05.024Z,17.93
2022-10-16T15:23:31.578Z,17.78
2022-10-16T15:25:58.118Z,17.74
2022-10-16T15:28:26.778Z,17.53
2022-10-16T15:30:55.905Z,17.46
2022-10-16T15:33:28.041Z,17.33
2022-10-16T15:35:54.922Z,17.43
2022-10-16T15:38:22.945Z,17.25
2022-10-16T15:40:50.209Z,17.26
2022-10-16T15:43:17.308Z,17.39
2022-10-16T15:45:43.952Z,17.41
2022-10-16T15:48:12.400Z,17.40
2022-10-16T15:50:40.171Z,17.36
2022-10-16T15:53:06.691Z,17.20
2022-10-16T15:55:34.900Z,17.12
2022-10-16T15:58:01.390Z,16.96
2022-10-16T16:00:27.929Z,17.14
2022-10-16T16:02:55.272Z,17.03
2022-10-16T16:05:23.024Z,17.08
2022-10-16T16:07:50.328Z,17.03
2022-10-16T16:10:17.388Z,16.92
2022-10-16T16:12:44.032Z,16.86
2022-10-16T16:15:11.167Z,16.79
2022-10-16T16:17:37.918Z,16.68
2022-10-16T16:20:05.806Z,16.43
2022-10-16T16:22:32.277Z,16.28
2022-10-16T16:24:58.776Z,16.13
2022-10-16T16:27:30.719Z,16.24
2022-10-16T16:29:57.517Z,16.08
2022-10-16T16:32:24.006Z,16.01
2022-10-16T16:34:50.507Z,15.95
2022-10-16T16:37:17.168Z,16.00
2022-10-16T16:39:43.691Z,15.86
2022-10-16T16:42:11.071Z,15.80
2022-10-16T16:44:38.481Z,15.81
2022-10-16T16:47:05.724Z,15.78
2022-10-16T16:49:32.825Z,15.56
2022-10-16T16:51:59.378Z,15.52
2022-10-16T16:54:25.962Z,15.48
2022-10-16T16:56:52.597Z,15.23
2022-10-16T16:59:22.741Z,15.08
2022-10-16T17:01:55.616Z,15.03
2022-10-16T17:04:23.614Z,15.02
2022-10-16T17:06:50.159Z,15.06
2022-10-16T17:09:16.771Z,15.04
2022-10-16T17:11:45.340Z,15.03
2022-10-16T17:14:12.351Z,15.02
2022-10-16T17:16:40.199Z,14.89
2022-10-16T17:19:08.986Z,14.82
2022-10-16T17:21:36.340Z,14.93
2022-10-16T17:24:03.450Z,14.90
2022-10-16T17:26:30.806Z,14.77
2022-10-16T17:28:59.651Z,14.77
2022-10-16T17:31:30.211Z,14.66
2022-10-16T17:33:58.844Z,14.62
2022-10-16T17:36:25.636Z,14.60
2022-10-16T17:38:52.148Z,14.63
2022-10-16T17:41:21.932Z,14.58
2022-10-16T17:43:49.316Z,14.41
2022-10-16T17:46:18.541Z,14.48
2022-10-16T17:48:48.487Z,14.41
2022-10-16T17:51:18.856Z,14.38
2022-10-16T17:53:49.295Z,14.28
2022-10-16T17:56:16.896Z,14.24
2022-10-16T17:58:45.431Z,14.18
2022-10-16T18:01:18.960Z,14.11
2022-10-16T18:03:54.136Z,14.07
2022-10-16T18:06:23.134Z,13.88
2022-10-16T18:08:51.009Z,14.00
2022-10-16T18:11:17.818Z,14.00
2022-10-16T18:13:44.324Z,13.89
2022-10-16T18:16:14.221Z,13.98
2022-10-16T18:18:43.047Z,13.80
2022-10-16T18:21:12.326Z,13.85
2022-10-16T18:23:39.611Z,13.99
2022-10-16T18:26:07.755Z,13.95
2022-10-16T18:28:34.954Z,13.87
2022-10-16T18:31:12.146Z,13.76
2022-10-16T18:33:39.204Z,13.89
2022-10-16T18:36:09.016Z,13.84
2022-10-16T18:38:37.173Z,13.78
2022-10-16T18:41:06.788Z,13.71
2022-10-16T18:43:38.349Z,13.70
2022-10-16T18:46:12.935Z,13.74
2022-10-16T18:48:40.656Z,13.76
2022-10-16T18:51:15.014Z,13.69
2022-10-16T18:53:44.244Z,13.59
2022-10-16T18:56:12.144Z,13.60
2022-10-16T18:58:41.091Z,13.58
2022-10-16T19:01:09.951Z,13.50
2022-10-16T19:03:38.719Z,13.50
2022-10-16T19:06:08.844Z,13.50
2022-10-16T19:08:38.055Z,13.52
2022-10-16T19:11:12.178Z,13.52
2022-10-16T19:13:38.670Z,13.46
2022-10-16T19:16:19.926Z,13.50
2022-10-16T19:18:48.078Z,13.56
2022-10-16T19:21:15.615Z,13.49
2022-10-16T19:23:42.278Z,13.42
2022-10-16T19:26:12.198Z,13.48
2022-10-16T19:28:39.649Z,13.53
2022-10-16T19:31:11.511Z,13.56
2022-10-16T19:33:38.784Z,13.47
2022-10-16T19:36:14.069Z,13.47
2022-10-16T19:38:41.584Z,13.47
2022-10-16T19:41:10.368Z,13.43
2022-10-16T19:43:37.050Z,13.26
2022-10-16T19:46:08.417Z,13.23
2022-10-16T19:48:35.477Z,13.25
2022-10-16T19:51:03.018Z,13.20
2022-10-16T19:53:30.072Z,13.13
2022-10-16T19:55:57.751Z,13.03
2022-10-16T19:58:24.998Z,13.00
2022-10-16T20:00:52.073Z,13.00
2022-10-16T20:03:18.868Z,12.91
2022-10-16T20:05:53.292Z,12.83
2022-10-16T20:08:19.824Z,12.77
2022-10-16T20:10:53.945Z,12.86
2022-10-16T20:13:21.965Z,12.76
2022-10-16T20:15:48.911Z,12.75
2022-10-16T20:18:16.439Z,12.86
2022-10-16T20:20:46.073Z,12.92
2022-10-16T20:23:12.590Z,12.87
2022-10-16T20:25:41.088Z,12.86
2022-10-16T20:28:09.314Z,12.92
2022-10-16T20:30:37.817Z,12.75
2022-10-16T20:33:05.220Z,12.73
2022-10-16T20:35:36.840Z,12.91
2022-10-16T20:38:03.724Z,12.90
2022-10-16T20:40:30.828Z,12.83
2022-10-16T20:42:57.295Z,12.88
2022-10-16T20:45:23.751Z,12.88
2022-10-16T20:47:50.293Z,12.74
2022-10-16T20:50:17.712Z,12.72
2022-10-16T20:52:44.340Z,12.72
2022-10-16T20:55:10.919Z,12.78
2022-10-16T20:57:37.393Z,12.71
2022-10-16T21:00:05.587Z,12.80
2022-10-16T21:02:32.030Z,12.79
2022-10-16T21:04:58.573Z,12.76
2022-10-16T21:07:25.318Z,12.54
2022-10-16T21:09:54.217Z,12.56
2022-10-16T21:12:20.686Z,12.54
2022-10-16T21:15:12.957Z,12.52
2022-10-16T21:17:33.789Z,12.36
2022-10-16T21:20:00.282Z,12.64
2022-10-16T21:22:31.221Z,12.49
2022-10-16T21:24:57.639Z,12.40
2022-10-16T21:27:24.177Z,12.40
2022-10-16T21:29:53.067Z,12.53
2022-10-16T21:32:20.948Z,12.48
2022-10-16T21:34:48.068Z,12.59
2022-10-16T21:37:14.821Z,12.49
2022-10-16T21:39:41.496Z,12.46
2022-10-16T21:42:07.945Z,12.53
2022-10-16T21:44:34.388Z,12.43
2022-10-16T21:47:00.890Z,12.27
2022-10-16T21:49:27.497Z,12.31
2022-10-16T21:51:54.003Z,12.29
2022-10-16T21:54:22.818Z,12.36
2022-10-16T21:56:49.668Z,12.29
2022-10-16T21:59:16.389Z,12.27
2022-10-16T22:01:43.228Z,12.31
2022-10-16T22:04:14.640Z,12.29
2022-10-16T22:06:42.883Z,12.40
2022-10-16T22:09:13.965Z,12.37
2022-10-16T22:11:41.895Z,12.27
2022-10-16T22:14:19.811Z,12.31
2022-10-16T22:16:46.905Z,12.26
2022-10-16T22:19:15.119Z,12.22
2022-10-16T22:21:42.913Z,12.22
2022-10-16T22:24:09.580Z,12.10
2022-10-16T22:26:36.935Z,12.11
2022-10-16T22:29:03.998Z,12.06
2022-10-16T22:31:30.609Z,11.93
2022-10-16T22:34:03.037Z,11.95
2022-10-16T22:36:30.402Z,11.86
2022-10-16T22:38:57.854Z,11.92
2022-10-16T22:41:27.166Z,11.85
2022-10-16T22:43:53.996Z,11.85
2022-10-16T22:46:31.611Z,11.84
2022-10-16T22:48:58.526Z,11.99
2022-10-16T22:51:26.951Z,12.01
2022-10-16T22:53:53.813Z,12.07
2022-10-16T22:56:21.524Z,12.01
2022-10-16T22:58:48.276Z,11.88
2022-10-16T23:01:21.882Z,11.89
2022-10-16T23:03:48.897Z,11.83
2022-10-16T23:06:15.446Z,11.87
2022-10-16T23:08:42.453Z,11.78
2022-10-16T23:11:11.400Z,11.67
2022-10-16T23:13:39.811Z,11.66
2022-10-16T23:16:07.132Z,11.65
2022-10-16T23:18:34.568Z,11.58
2022-10-16T23:21:08.765Z,11.55
2022-10-16T23:23:36.788Z,11.52
2022-10-16T23:26:08.124Z,11.56
2022-10-16T23:28:34.599Z,11.53
2022-10-16T23:31:04.294Z,11.64
2022-10-16T23:33:32.445Z,11.71
2022-10-16T23:35:59.063Z,11.42
2022-10-16T23:38:25.660Z,11.43
2022-10-16T23:40:52.133Z,11.53
2022-10-16T23:43:18.563Z,11.51
2022-10-16T23:45:45.195Z,11.51
2022-10-16T23:48:11.723Z,11.50
2022-10-16T23:50:38.170Z,11.44
2022-10-16T23:53:06.664Z,11.48
2022-10-16T23:55:36.467Z,11.62
2022-10-16T23:58:03.824Z,11.49
